sensor_id;sensor_type;location;lat;lon;timestamp;P1;durP1;ratioP1;P2;durP2;ratioP2
17496;SDS011;62150;43.582;1.456;2022-09-21T05:47:21;5.80;;;1.80;;
17496;SDS011;62150;43.582;1.456;2022-09-21T05:49:54;5.17;;;1.90;;
17496;SDS011;62150;43.582;1.456;2022-09-21T05:52:27;3.93;;;1.90;;
17496;SDS011;62150;43.582;1.456;2022-09-21T05:55:05;3.40;;;1.80;;
17496;SDS011;62150;43.582;1.456;2022-09-21T05:57:45;5.63;;;2.00;;
17496;SDS011;62150;43.582;1.456;2022-09-21T06:00:20;3.50;;;1.80;;
17496;SDS011;62150;43.582;1.456;2022-09-21T06:05:45;3.53;;;1.90;;
17496;SDS011;62150;43.582;1.456;2022-09-21T06:08:13;7.47;;;2.10;;
17496;SDS011;62150;43.582;1.456;2022-09-21T06:10:40;6.00;;;2.17;;
17496;SDS011;62150;43.582;1.456;2022-09-21T06:13:08;4.13;;;1.97;;
17496;SDS011;62150;43.582;1.456;2022-09-21T06:15:35;5.03;;;2.10;;
17496;SDS011;62150;43.582;1.456;2022-09-21T06:18:03;3.10;;;1.90;;
17496;SDS011;62150;43.582;1.456;2022-09-21T06:20:32;5.80;;;2.10;;
17496;SDS011;62150;43.582;1.456;2022-09-21T06:23:00;5.37;;;2.10;;
17496;SDS011;62150;43.582;1.456;2022-09-21T06:25:29;5.77;;;1.90;;
17496;SDS011;62150;43.582;1.456;2022-09-21T06:28:00;3.60;;;1.90;;
17496;SDS011;62150;43.582;1.456;2022-09-21T06:30:29;5.00;;;2.00;;
17496;SDS011;62150;43.582;1.456;2022-09-21T06:32:58;6.17;;;2.00;;
17496;SDS011;62150;43.582;1.456;2022-09-21T06:35:27;7.60;;;2.10;;
17496;SDS011;62150;43.582;1.456;2022-09-21T06:37:59;5.00;;;2.00;;
17496;SDS011;62150;43.582;1.456;2022-09-21T06:40:28;5.43;;;2.17;;
17496;SDS011;62150;43.582;1.456;2022-09-21T06:42:56;7.50;;;2.37;;
17496;SDS011;62150;43.582;1.456;2022-09-21T06:45:25;4.13;;;2.10;;
17496;SDS011;62150;43.582;1.456;2022-09-21T06:47:53;5.83;;;2.17;;
17496;SDS011;62150;43.582;1.456;2022-09-21T06:50:21;7.77;;;2.20;;
17496;SDS011;62150;43.582;1.456;2022-09-21T06:52:49;7.23;;;2.17;;
17496;SDS011;62150;43.582;1.456;2022-09-21T06:55:18;6.80;;;2.20;;
17496;SDS011;62150;43.582;1.456;2022-09-21T06:57:46;5.27;;;2.00;;
17496;SDS011;62150;43.582;1.456;2022-09-21T07:00:15;4.23;;;1.90;;
17496;SDS011;62150;43.582;1.456;2022-09-21T07:02:43;6.57;;;2.10;;
17496;SDS011;62150;43.582;1.456;2022-09-21T07:05:10;5.30;;;2.03;;
17496;SDS011;62150;43.582;1.456;2022-09-21T07:07:38;5.47;;;2.10;;
17496;SDS011;62150;43.582;1.456;2022-09-21T07:10:06;5.60;;;2.17;;
17496;SDS011;62150;43.582;1.456;2022-09-21T07:12:36;7.73;;;2.13;;
17496;SDS011;62150;43.582;1.456;2022-09-21T07:15:04;6.07;;;2.17;;
17496;SDS011;62150;43.582;1.456;2022-09-21T07:17:33;6.77;;;2.17;;
17496;SDS011;62150;43.582;1.456;2022-09-21T07:20:03;6.33;;;2.17;;
17496;SDS011;62150;43.582;1.456;2022-09-21T07:22:33;6.63;;;2.30;;
17496;SDS011;62150;43.582;1.456;2022-09-21T07:25:01;3.87;;;1.83;;
17496;SDS011;62150;43.582;1.456;2022-09-21T07:27:30;9.27;;;2.30;;
17496;SDS011;62150;43.582;1.456;2022-09-21T07:30:00;5.37;;;2.57;;
17496;SDS011;62150;43.582;1.456;2022-09-21T07:32:27;5.47;;;2.00;;
17496;SDS011;62150;43.582;1.456;2022-09-21T07:34:56;4.97;;;2.17;;
17496;SDS011;62150;43.582;1.456;2022-09-21T07:37:23;6.53;;;2.30;;
17496;SDS011;62150;43.582;1.456;2022-09-21T07:39:51;9.40;;;2.33;;
17496;SDS011;62150;43.582;1.456;2022-09-21T07:42:19;5.67;;;2.10;;
17496;SDS011;62150;43.582;1.456;2022-09-21T07:44:49;7.60;;;2.93;;
17496;SDS011;62150;43.582;1.456;2022-09-21T07:47:19;5.53;;;2.60;;
17496;SDS011;62150;43.582;1.456;2022-09-21T07:49:51;8.40;;;2.50;;
17496;SDS011;62150;43.582;1.456;2022-09-21T07:52:19;5.60;;;2.70;;
17496;SDS011;62150;43.582;1.456;2022-09-21T07:54:47;4.43;;;2.03;;
17496;SDS011;62150;43.582;1.456;2022-09-21T07:57:14;6.17;;;2.00;;
17496;SDS011;62150;43.582;1.456;2022-09-21T07:59:59;5.83;;;2.00;;
17496;SDS011;62150;43.582;1.456;2022-09-21T08:02:28;6.40;;;2.00;;
17496;SDS011;62150;43.582;1.456;2022-09-21T08:04:56;5.23;;;2.00;;
17496;SDS011;62150;43.582;1.456;2022-09-21T08:07:23;5.60;;;2.30;;
17496;SDS011;62150;43.582;1.456;2022-09-21T08:09:52;5.70;;;2.00;;
17496;SDS011;62150;43.582;1.456;2022-09-21T08:12:20;6.13;;;2.30;;
17496;SDS011;62150;43.582;1.456;2022-09-21T08:14:47;7.23;;;2.27;;
17496;SDS011;62150;43.582;1.456;2022-09-21T08:17:15;5.93;;;2.03;;
17496;SDS011;62150;43.582;1.456;2022-09-21T08:19:44;3.83;;;1.80;;
17496;SDS011;62150;43.582;1.456;2022-09-21T08:22:11;5.10;;;2.10;;
17496;SDS011;62150;43.582;1.456;2022-09-21T08:24:39;4.40;;;2.00;;
17496;SDS011;62150;43.582;1.456;2022-09-21T08:27:08;7.67;;;2.07;;
17496;SDS011;62150;43.582;1.456;2022-09-21T08:29:36;5.23;;;2.10;;
17496;SDS011;62150;43.582;1.456;2022-09-21T08:32:04;5.03;;;2.00;;
17496;SDS011;62150;43.582;1.456;2022-09-21T08:34:31;3.73;;;1.77;;
17496;SDS011;62150;43.582;1.456;2022-09-21T08:37:00;4.23;;;2.00;;
17496;SDS011;62150;43.582;1.456;2022-09-21T08:39:28;7.93;;;2.40;;
17496;SDS011;62150;43.582;1.456;2022-09-21T08:42:01;9.27;;;2.07;;
17496;SDS011;62150;43.582;1.456;2022-09-21T08:44:37;4.97;;;1.90;;
17496;SDS011;62150;43.582;1.456;2022-09-21T08:47:09;6.00;;;2.00;;
17496;SDS011;62150;43.582;1.456;2022-09-21T08:49:40;5.67;;;2.00;;
17496;SDS011;62150;43.582;1.456;2022-09-21T08:52:15;5.40;;;2.10;;
17496;SDS011;62150;43.582;1.456;2022-09-21T08:54:46;8.63;;;2.10;;
17496;SDS011;62150;43.582;1.456;2022-09-21T08:57:20;6.73;;;2.10;;
17496;SDS011;62150;43.582;1.456;2022-09-21T08:59:51;6.10;;;1.87;;
17496;SDS011;62150;43.582;1.456;2022-09-21T09:02:23;5.97;;;1.83;;
17496;SDS011;62150;43.582;1.456;2022-09-21T09:04:59;7.53;;;2.00;;
17496;SDS011;62150;43.582;1.456;2022-09-21T09:07:49;4.57;;;2.00;;
17496;SDS011;62150;43.582;1.456;2022-09-21T09:10:40;4.67;;;1.97;;
17496;SDS011;62150;43.582;1.456;2022-09-21T09:13:25;4.45;;;1.92;;
17496;SDS011;62150;43.582;1.456;2022-09-21T09:16:10;5.13;;;2.00;;
17496;SDS011;62150;43.582;1.456;2022-09-21T09:18:44;5.57;;;1.93;;
17496;SDS011;62150;43.582;1.456;2022-09-21T09:21:18;7.80;;;1.90;;
17496;SDS011;62150;43.582;1.456;2022-09-21T09:23:52;4.10;;;1.90;;
17496;SDS011;62150;43.582;1.456;2022-09-21T09:26:26;5.47;;;2.03;;
17496;SDS011;62150;43.582;1.456;2022-09-21T09:28:59;4.60;;;1.87;;
17496;SDS011;62150;43.582;1.456;2022-09-21T09:31:30;7.30;;;1.95;;
17496;SDS011;62150;43.582;1.456;2022-09-21T09:34:00;5.23;;;1.93;;
17496;SDS011;62150;43.582;1.456;2022-09-21T09:36:38;3.93;;;1.80;;
17496;SDS011;62150;43.582;1.456;2022-09-21T09:39:13;6.68;;;2.08;;
17496;SDS011;62150;43.582;1.456;2022-09-21T09:41:45;5.70;;;1.88;;
17496;SDS011;62150;43.582;1.456;2022-09-21T09:44:37;5.60;;;2.00;;
17496;SDS011;62150;43.582;1.456;2022-09-21T09:47:25;6.53;;;1.97;;
17496;SDS011;62150;43.582;1.456;2022-09-21T09:50:04;8.05;;;1.83;;
17496;SDS011;62150;43.582;1.456;2022-09-21T09:52:34;5.50;;;1.85;;
17496;SDS011;62150;43.582;1.456;2022-09-21T09:55:10;6.10;;;1.90;;
17496;SDS011;62150;43.582;1.456;2022-09-21T09:57:44;5.33;;;1.90;;
17496;SDS011;62150;43.582;1.456;2022-09-21T10:00:13;8.25;;;1.95;;
17496;SDS011;62150;43.582;1.456;2022-09-21T10:02:45;4.13;;;2.05;;
17496;SDS011;62150;43.582;1.456;2022-09-21T10:05:22;4.23;;;1.87;;
17496;SDS011;62150;43.582;1.456;2022-09-21T10:07:50;4.88;;;1.92;;
17496;SDS011;62150;43.582;1.456;2022-09-21T10:10:28;4.90;;;2.08;;
17496;SDS011;62150;43.582;1.456;2022-09-21T10:13:02;5.05;;;1.90;;
17496;SDS011;62150;43.582;1.456;2022-09-21T10:15:37;4.93;;;1.80;;
17496;SDS011;62150;43.582;1.456;2022-09-21T10:18:18;4.40;;;1.70;;
17496;SDS011;62150;43.582;1.456;2022-09-21T10:20:51;4.10;;;1.90;;
17496;SDS011;62150;43.582;1.456;2022-09-21T10:23:21;4.03;;;1.80;;
17496;SDS011;62150;43.582;1.456;2022-09-21T10:25:57;3.40;;;1.83;;
17496;SDS011;62150;43.582;1.456;2022-09-21T10:28:28;5.47;;;1.95;;
17496;SDS011;62150;43.582;1.456;2022-09-21T10:31:09;5.80;;;2.08;;
17496;SDS011;62150;43.582;1.456;2022-09-21T10:33:45;4.53;;;2.08;;
17496;SDS011;62150;43.582;1.456;2022-09-21T10:36:28;3.03;;;1.80;;
17496;SDS011;62150;43.582;1.456;2022-09-21T10:41:50;4.60;;;1.80;;
17496;SDS011;62150;43.582;1.456;2022-09-21T10:44:22;7.75;;;1.90;;
17496;SDS011;62150;43.582;1.456;2022-09-21T10:46:52;4.85;;;1.73;;
17496;SDS011;62150;43.582;1.456;2022-09-21T10:49:21;4.50;;;1.75;;
17496;SDS011;62150;43.582;1.456;2022-09-21T10:51:52;6.57;;;2.03;;
17496;SDS011;62150;43.582;1.456;2022-09-21T10:54:23;4.82;;;1.90;;
17496;SDS011;62150;43.582;1.456;2022-09-21T10:56:56;5.10;;;2.10;;
17496;SDS011;62150;43.582;1.456;2022-09-21T10:59:27;4.57;;;1.80;;
17496;SDS011;62150;43.582;1.456;2022-09-21T11:01:56;4.72;;;1.70;;
17496;SDS011;62150;43.582;1.456;2022-09-21T11:04:33;5.75;;;2.00;;
17496;SDS011;62150;43.582;1.456;2022-09-21T11:07:08;4.18;;;1.77;;
17496;SDS011;62150;43.582;1.456;2022-09-21T11:09:41;3.92;;;1.80;;
17496;SDS011;62150;43.582;1.456;2022-09-21T11:15:12;5.47;;;1.80;;
17496;SDS011;62150;43.582;1.456;2022-09-21T11:17:48;5.93;;;1.95;;
17496;SDS011;62150;43.582;1.456;2022-09-21T11:20:25;5.85;;;1.75;;
17496;SDS011;62150;43.582;1.456;2022-09-21T11:23:01;4.32;;;1.80;;
17496;SDS011;62150;43.582;1.456;2022-09-21T11:25:44;5.18;;;1.95;;
17496;SDS011;62150;43.582;1.456;2022-09-21T11:28:18;6.45;;;1.85;;
17496;SDS011;62150;43.582;1.456;2022-09-21T11:33:54;2.13;;;1.65;;
17496;SDS011;62150;43.582;1.456;2022-09-21T11:36:52;6.20;;;1.80;;
17496;SDS011;62150;43.582;1.456;2022-09-21T11:39:35;3.92;;;1.60;;
17496;SDS011;62150;43.582;1.456;2022-09-21T11:42:16;4.55;;;1.70;;
17496;SDS011;62150;43.582;1.456;2022-09-21T11:44:59;3.40;;;1.80;;
17496;SDS011;62150;43.582;1.456;2022-09-21T11:47:32;4.55;;;1.67;;
17496;SDS011;62150;43.582;1.456;2022-09-21T11:50:16;3.55;;;1.73;;
17496;SDS011;62150;43.582;1.456;2022-09-21T11:53:07;6.22;;;1.90;;
17496;SDS011;62150;43.582;1.456;2022-09-21T11:55:52;3.53;;;1.80;;
17496;SDS011;62150;43.582;1.456;2022-09-21T11:58:33;3.65;;;1.60;;
17496;SDS011;62150;43.582;1.456;2022-09-21T12:01:12;3.35;;;1.92;;
17496;SDS011;62150;43.582;1.456;2022-09-21T12:03:55;2.45;;;1.83;;
17496;SDS011;62150;43.582;1.456;2022-09-21T12:06:47;5.80;;;1.70;;
17496;SDS011;62150;43.582;1.456;2022-09-21T12:09:45;5.35;;;1.80;;
17496;SDS011;62150;43.582;1.456;2022-09-21T12:12:24;5.93;;;1.80;;
17496;SDS011;62150;43.582;1.456;2022-09-21T12:15:01;4.15;;;1.70;;
17496;SDS011;62150;43.582;1.456;2022-09-21T12:17:40;6.30;;;1.80;;
17496;SDS011;62150;43.582;1.456;2022-09-21T12:20:16;4.03;;;1.65;;
17496;SDS011;62150;43.582;1.456;2022-09-21T12:22:55;2.85;;;1.70;;
17496;SDS011;62150;43.582;1.456;2022-09-21T12:25:27;6.95;;;1.95;;
17496;SDS011;62150;43.582;1.456;2022-09-21T12:28:02;3.92;;;1.70;;
17496;SDS011;62150;43.582;1.456;2022-09-21T12:30:35;4.65;;;1.67;;
17496;SDS011;62150;43.582;1.456;2022-09-21T12:33:11;4.90;;;2.03;;
17496;SDS011;62150;43.582;1.456;2022-09-21T12:35:45;3.85;;;1.70;;
17496;SDS011;62150;43.582;1.456;2022-09-21T12:38:17;3.58;;;1.70;;
17496;SDS011;62150;43.582;1.456;2022-09-21T12:40:51;3.42;;;1.60;;
17496;SDS011;62150;43.582;1.456;2022-09-21T12:43:28;4.03;;;1.70;;
17496;SDS011;62150;43.582;1.456;2022-09-21T12:46:03;5.70;;;1.63;;
17496;SDS011;62150;43.582;1.456;2022-09-21T12:48:38;5.10;;;1.70;;
17496;SDS011;62150;43.582;1.456;2022-09-21T12:51:11;4.57;;;1.90;;
17496;SDS011;62150;43.582;1.456;2022-09-21T12:53:45;3.40;;;1.50;;
17496;SDS011;62150;43.582;1.456;2022-09-21T12:56:28;4.40;;;1.70;;
17496;SDS011;62150;43.582;1.456;2022-09-21T12:59:07;3.33;;;1.50;;
17496;SDS011;62150;43.582;1.456;2022-09-21T13:01:47;3.05;;;1.60;;
17496;SDS011;62150;43.582;1.456;2022-09-21T13:04:32;6.43;;;1.80;;
17496;SDS011;62150;43.582;1.456;2022-09-21T13:07:20;4.10;;;1.65;;
17496;SDS011;62150;43.582;1.456;2022-09-21T13:10:07;4.88;;;1.60;;
17496;SDS011;62150;43.582;1.456;2022-09-21T13:12:45;3.72;;;1.60;;
17496;SDS011;62150;43.582;1.456;2022-09-21T13:15:21;4.53;;;1.55;;
17496;SDS011;62150;43.582;1.456;2022-09-21T13:17:56;3.75;;;1.70;;
17496;SDS011;62150;43.582;1.456;2022-09-21T13:20:34;2.63;;;1.60;;
17496;SDS011;62150;43.582;1.456;2022-09-21T13:23:04;3.00;;;1.50;;
17496;SDS011;62150;43.582;1.456;2022-09-21T13:25:38;3.05;;;1.50;;
17496;SDS011;62150;43.582;1.456;2022-09-21T13:28:16;4.40;;;1.63;;
17496;SDS011;62150;43.582;1.456;2022-09-21T13:30:48;2.30;;;1.50;;
17496;SDS011;62150;43.582;1.456;2022-09-21T13:33:31;3.45;;;1.70;;
17496;SDS011;62150;43.582;1.456;2022-09-21T13:39:03;2.42;;;1.50;;
17496;SDS011;62150;43.582;1.456;2022-09-21T13:41:41;3.08;;;1.50;;
17496;SDS011;62150;43.582;1.456;2022-09-21T13:44:35;4.03;;;1.60;;
17496;SDS011;62150;43.582;1.456;2022-09-21T13:47:06;3.50;;;1.60;;
17496;SDS011;62150;43.582;1.456;2022-09-21T13:49:45;2.50;;;1.48;;
17496;SDS011;62150;43.582;1.456;2022-09-21T13:52:25;2.92;;;1.60;;
17496;SDS011;62150;43.582;1.456;2022-09-21T13:55:04;3.40;;;1.83;;
17496;SDS011;62150;43.582;1.456;2022-09-21T13:57:48;3.45;;;1.40;;
17496;SDS011;62150;43.582;1.456;2022-09-21T14:00:35;4.95;;;1.55;;
17496;SDS011;62150;43.582;1.456;2022-09-21T14:03:15;4.75;;;1.60;;
17496;SDS011;62150;43.582;1.456;2022-09-21T14:05:47;5.65;;;1.77;;
17496;SDS011;62150;43.582;1.456;2022-09-21T14:08:24;6.78;;;1.95;;
17496;SDS011;62150;43.582;1.456;2022-09-21T14:10:55;2.75;;;1.45;;
17496;SDS011;62150;43.582;1.456;2022-09-21T14:13:31;4.00;;;1.60;;
17496;SDS011;62150;43.582;1.456;2022-09-21T14:18:51;3.53;;;1.40;;
17496;SDS011;62150;43.582;1.456;2022-09-21T14:21:19;3.03;;;1.45;;
17496;SDS011;62150;43.582;1.456;2022-09-21T14:29:42;3.33;;;1.58;;
17496;SDS011;62150;43.582;1.456;2022-09-21T14:32:15;3.40;;;1.63;;
17496;SDS011;62150;43.582;1.456;2022-09-21T14:34:47;4.10;;;1.60;;
17496;SDS011;62150;43.582;1.456;2022-09-21T14:37:24;3.70;;;1.60;;
17496;SDS011;62150;43.582;1.456;2022-09-21T14:39:58;2.80;;;1.52;;
17496;SDS011;62150;43.582;1.456;2022-09-21T14:42:29;3.78;;;1.55;;
17496;SDS011;62150;43.582;1.456;2022-09-21T14:44:58;3.42;;;1.60;;
17496;SDS011;62150;43.582;1.456;2022-09-21T14:50:31;4.45;;;1.65;;
17496;SDS011;62150;43.582;1.456;2022-09-21T14:56:26;3.85;;;1.60;;
17496;SDS011;62150;43.582;1.456;2022-09-21T14:59:11;3.40;;;1.60;;
17496;SDS011;62150;43.582;1.456;2022-09-21T15:01:53;2.50;;;1.55;;
17496;SDS011;62150;43.582;1.456;2022-09-21T15:04:31;2.03;;;1.35;;
17496;SDS011;62150;43.582;1.456;2022-09-21T15:07:19;3.65;;;1.58;;
17496;SDS011;62150;43.582;1.456;2022-09-21T15:10:27;2.38;;;1.50;;
17496;SDS011;62150;43.582;1.456;2022-09-21T15:13:18;3.78;;;1.60;;
17496;SDS011;62150;43.582;1.456;2022-09-21T15:16:20;3.55;;;1.73;;
17496;SDS011;62150;43.582;1.456;2022-09-21T15:19:04;5.57;;;1.58;;
17496;SDS011;62150;43.582;1.456;2022-09-21T15:21:40;4.13;;;1.55;;
17496;SDS011;62150;43.582;1.456;2022-09-21T15:24:15;4.07;;;1.63;;
17496;SDS011;62150;43.582;1.456;2022-09-21T15:26:50;3.92;;;1.58;;
17496;SDS011;62150;43.582;1.456;2022-09-21T15:29:24;3.03;;;1.55;;
17496;SDS011;62150;43.582;1.456;2022-09-21T15:31:55;3.83;;;1.50;;
17496;SDS011;62150;43.582;1.456;2022-09-21T15:34:23;4.78;;;1.65;;
17496;SDS011;62150;43.582;1.456;2022-09-21T15:36:52;3.95;;;1.70;;
17496;SDS011;62150;43.582;1.456;2022-09-21T15:39:30;3.92;;;1.60;;
17496;SDS011;62150;43.582;1.456;2022-09-21T15:42:16;3.35;;;1.60;;
17496;SDS011;62150;43.582;1.456;2022-09-21T15:44:48;1.80;;;1.40;;
17496;SDS011;62150;43.582;1.456;2022-09-21T15:47:20;2.10;;;1.60;;
17496;SDS011;62150;43.582;1.456;2022-09-21T15:49:52;5.60;;;1.65;;
17496;SDS011;62150;43.582;1.456;2022-09-21T15:52:22;4.43;;;1.60;;
17496;SDS011;62150;43.582;1.456;2022-09-21T15:54:57;3.95;;;1.70;;
17496;SDS011;62150;43.582;1.456;2022-09-21T15:57:30;3.35;;;1.60;;
17496;SDS011;62150;43.582;1.456;2022-09-21T16:00:03;3.42;;;1.70;;
17496;SDS011;62150;43.582;1.456;2022-09-21T16:02:50;3.50;;;1.60;;
17496;SDS011;62150;43.582;1.456;2022-09-21T16:05:29;2.80;;;1.55;;
17496;SDS011;62150;43.582;1.456;2022-09-21T16:08:06;4.88;;;1.70;;
17496;SDS011;62150;43.582;1.456;2022-09-21T16:10:43;3.15;;;1.60;;
17496;SDS011;62150;43.582;1.456;2022-09-21T16:13:13;4.55;;;1.70;;
17496;SDS011;62150;43.582;1.456;2022-09-21T16:16:03;3.22;;;1.60;;
17496;SDS011;62150;43.582;1.456;2022-09-21T16:18:39;2.45;;;1.42;;
17496;SDS011;62150;43.582;1.456;2022-09-21T16:21:13;3.25;;;1.73;;
17496;SDS011;62150;43.582;1.456;2022-09-21T16:23:45;5.00;;;1.60;;
17496;SDS011;62150;43.582;1.456;2022-09-21T16:26:18;4.03;;;1.60;;
17496;SDS011;62150;43.582;1.456;2022-09-21T16:28:48;3.92;;;1.70;;
17496;SDS011;62150;43.582;1.456;2022-09-21T16:31:41;3.42;;;1.67;;
17496;SDS011;62150;43.582;1.456;2022-09-21T16:34:18;3.35;;;1.48;;
17496;SDS011;62150;43.582;1.456;2022-09-21T16:36:48;5.25;;;1.67;;
17496;SDS011;62150;43.582;1.456;2022-09-21T16:39:18;2.25;;;1.40;;
17496;SDS011;62150;43.582;1.456;2022-09-21T16:41:51;3.42;;;1.70;;
17496;SDS011;62150;43.582;1.456;2022-09-21T16:44:22;1.73;;;1.40;;
17496;SDS011;62150;43.582;1.456;2022-09-21T16:46:57;4.78;;;1.63;;
17496;SDS011;62150;43.582;1.456;2022-09-21T16:49:27;2.63;;;1.60;;
17496;SDS011;62150;43.582;1.456;2022-09-21T16:51:57;4.30;;;1.70;;
17496;SDS011;62150;43.582;1.456;2022-09-21T16:54:25;3.42;;;1.63;;
17496;SDS011;62150;43.582;1.456;2022-09-21T16:56:55;2.53;;;1.65;;
17496;SDS011;62150;43.582;1.456;2022-09-21T16:59:23;2.90;;;1.50;;
17496;SDS011;62150;43.582;1.456;2022-09-21T17:01:52;6.20;;;1.80;;
17496;SDS011;62150;43.582;1.456;2022-09-21T17:04:22;4.78;;;1.60;;
17496;SDS011;62150;43.582;1.456;2022-09-21T17:06:51;4.03;;;1.60;;
17496;SDS011;62150;43.582;1.456;2022-09-21T17:09:21;4.30;;;1.70;;
17496;SDS011;62150;43.582;1.456;2022-09-21T17:11:50;3.65;;;1.60;;
17496;SDS011;62150;43.582;1.456;2022-09-21T17:14:25;7.18;;;2.47;;
17496;SDS011;62150;43.582;1.456;2022-09-21T17:16:59;3.70;;;1.58;;
17496;SDS011;62150;43.582;1.456;2022-09-21T17:19:31;2.72;;;1.60;;
17496;SDS011;62150;43.582;1.456;2022-09-21T17:21:59;4.00;;;1.70;;
17496;SDS011;62150;43.582;1.456;2022-09-21T17:24:29;2.50;;;1.60;;
17496;SDS011;62150;43.582;1.456;2022-09-21T17:26:56;3.38;;;1.60;;
17496;SDS011;62150;43.582;1.456;2022-09-21T17:29:25;4.72;;;1.70;;
17496;SDS011;62150;43.582;1.456;2022-09-21T17:31:54;5.70;;;1.70;;
17496;SDS011;62150;43.582;1.456;2022-09-21T17:34:25;5.90;;;1.77;;
17496;SDS011;62150;43.582;1.456;2022-09-21T17:36:57;2.72;;;1.60;;
17496;SDS011;62150;43.582;1.456;2022-09-21T17:39:25;4.13;;;1.67;;
17496;SDS011;62150;43.582;1.456;2022-09-21T17:41:53;2.42;;;1.63;;
17496;SDS011;62150;43.582;1.456;2022-09-21T17:44:31;4.45;;;2.03;;
17496;SDS011;62150;43.582;1.456;2022-09-21T17:47:26;5.75;;;1.90;;
17496;SDS011;62150;43.582;1.456;2022-09-21T17:49:58;6.30;;;1.95;;
17496;SDS011;62150;43.582;1.456;2022-09-21T17:52:35;5.45;;;1.80;;
17496;SDS011;62150;43.582;1.456;2022-09-21T17:55:21;4.57;;;1.80;;
17496;SDS011;62150;43.582;1.456;2022-09-21T17:57:51;5.65;;;2.17;;
17496;SDS011;62150;43.582;1.456;2022-09-21T18:00:30;4.55;;;1.85;;
17496;SDS011;62150;43.582;1.456;2022-09-21T18:03:09;4.13;;;1.90;;
17496;SDS011;62150;43.582;1.456;2022-09-21T18:05:46;4.70;;;2.10;;
17496;SDS011;62150;43.582;1.456;2022-09-21T18:08:16;5.43;;;1.95;;
17496;SDS011;62150;43.582;1.456;2022-09-21T18:10:51;4.85;;;2.03;;
17496;SDS011;62150;43.582;1.456;2022-09-21T18:13:31;4.93;;;1.90;;
17496;SDS011;62150;43.582;1.456;2022-09-21T18:16:11;5.32;;;1.98;;
17496;SDS011;62150;43.582;1.456;2022-09-21T18:18:53;4.90;;;2.25;;
17496;SDS011;62150;43.582;1.456;2022-09-21T18:21:31;4.05;;;2.17;;
17496;SDS011;62150;43.582;1.456;2022-09-21T18:24:14;6.45;;;2.20;;
17496;SDS011;62150;43.582;1.456;2022-09-21T18:26:45;5.50;;;2.08;;
17496;SDS011;62150;43.582;1.456;2022-09-21T18:29:20;6.32;;;2.38;;
17496;SDS011;62150;43.582;1.456;2022-09-21T18:31:52;4.63;;;2.30;;
17496;SDS011;62150;43.582;1.456;2022-09-21T18:34:34;5.45;;;2.40;;
17496;SDS011;62150;43.582;1.456;2022-09-21T18:37:20;6.50;;;2.60;;
17496;SDS011;62150;43.582;1.456;2022-09-21T18:40:06;5.78;;;2.53;;
17496;SDS011;62150;43.582;1.456;2022-09-21T18:42:48;6.15;;;2.40;;
17496;SDS011;62150;43.582;1.456;2022-09-21T18:45:23;6.10;;;2.47;;
17496;SDS011;62150;43.582;1.456;2022-09-21T18:48:02;6.18;;;2.70;;
17496;SDS011;62150;43.582;1.456;2022-09-21T18:50:41;6.68;;;2.75;;
17496;SDS011;62150;43.582;1.456;2022-09-21T18:53:15;9.82;;;3.80;;
17496;SDS011;62150;43.582;1.456;2022-09-21T18:55:53;9.98;;;3.85;;
17496;SDS011;62150;43.582;1.456;2022-09-21T18:58:21;9.57;;;3.70;;
17496;SDS011;62150;43.582;1.456;2022-09-21T19:00:50;10.82;;;3.92;;
17496;SDS011;62150;43.582;1.456;2022-09-21T19:03:18;8.90;;;3.70;;
17496;SDS011;62150;43.582;1.456;2022-09-21T19:05:48;10.35;;;3.42;;
17496;SDS011;62150;43.582;1.456;2022-09-21T19:08:24;8.40;;;3.15;;
17496;SDS011;62150;43.582;1.456;2022-09-21T19:11:03;7.85;;;3.13;;
17496;SDS011;62150;43.582;1.456;2022-09-21T19:13:42;7.93;;;2.95;;
17496;SDS011;62150;43.582;1.456;2022-09-21T19:16:22;7.93;;;3.10;;
17496;SDS011;62150;43.582;1.456;2022-09-21T19:19:00;6.45;;;2.95;;
17496;SDS011;62150;43.582;1.456;2022-09-21T19:21:38;8.15;;;3.25;;
17496;SDS011;62150;43.582;1.456;2022-09-21T19:24:13;7.90;;;3.03;;
17496;SDS011;62150;43.582;1.456;2022-09-21T19:26:49;7.68;;;3.10;;
17496;SDS011;62150;43.582;1.456;2022-09-21T19:29:31;7.88;;;3.03;;
17496;SDS011;62150;43.582;1.456;2022-09-21T19:32:09;8.95;;;3.20;;
17496;SDS011;62150;43.582;1.456;2022-09-21T19:34:40;10.25;;;3.28;;
17496;SDS011;62150;43.582;1.456;2022-09-21T19:37:08;9.30;;;3.55;;
17496;SDS011;62150;43.582;1.456;2022-09-21T19:39:36;10.15;;;4.13;;
17496;SDS011;62150;43.582;1.456;2022-09-21T19:42:11;9.23;;;3.58;;
17496;SDS011;62150;43.582;1.456;2022-09-21T19:44:54;10.05;;;3.47;;
17496;SDS011;62150;43.582;1.456;2022-09-21T19:47:33;9.63;;;3.88;;
17496;SDS011;62150;43.582;1.456;2022-09-21T19:50:10;11.25;;;3.70;;
17496;SDS011;62150;43.582;1.456;2022-09-21T19:52:42;10.15;;;3.95;;
17496;SDS011;62150;43.582;1.456;2022-09-21T19:55:12;12.75;;;4.45;;
17496;SDS011;62150;43.582;1.456;2022-09-21T19:58:00;10.48;;;4.30;;
17496;SDS011;62150;43.582;1.456;2022-09-21T20:00:46;10.85;;;3.83;;
17496;SDS011;62150;43.582;1.456;2022-09-21T20:03:18;11.80;;;4.07;;
17496;SDS011;62150;43.582;1.456;2022-09-21T20:05:53;9.57;;;3.90;;
17496;SDS011;62150;43.582;1.456;2022-09-21T20:08:25;9.00;;;3.95;;
17496;SDS011;62150;43.582;1.456;2022-09-21T20:11:00;10.60;;;4.00;;
17496;SDS011;62150;43.582;1.456;2022-09-21T20:13:39;10.25;;;4.05;;
17496;SDS011;62150;43.582;1.456;2022-09-21T20:16:32;9.85;;;4.10;;
17496;SDS011;62150;43.582;1.456;2022-09-21T20:19:12;11.27;;;4.40;;
17496;SDS011;62150;43.582;1.456;2022-09-21T20:21:47;12.60;;;4.10;;
17496;SDS011;62150;43.582;1.456;2022-09-21T20:24:22;10.65;;;3.88;;
17496;SDS011;62150;43.582;1.456;2022-09-21T20:26:54;10.85;;;4.05;;
17496;SDS011;62150;43.582;1.456;2022-09-21T20:29:23;8.55;;;4.00;;
17496;SDS011;62150;43.582;1.456;2022-09-21T20:31:50;11.45;;;4.80;;
17496;SDS011;62150;43.582;1.456;2022-09-21T20:34:19;12.80;;;3.80;;
17496;SDS011;62150;43.582;1.456;2022-09-21T20:36:46;9.77;;;3.70;;
17496;SDS011;62150;43.582;1.456;2022-09-21T20:39:13;9.00;;;3.80;;
17496;SDS011;62150;43.582;1.456;2022-09-21T20:41:41;7.38;;;3.50;;
17496;SDS011;62150;43.582;1.456;2022-09-21T20:44:10;10.40;;;4.20;;
17496;SDS011;62150;43.582;1.456;2022-09-21T20:46:40;9.93;;;4.10;;
17496;SDS011;62150;43.582;1.456;2022-09-21T20:49:10;10.00;;;3.80;;
17496;SDS011;62150;43.582;1.456;2022-09-21T20:51:39;10.50;;;4.20;;
17496;SDS011;62150;43.582;1.456;2022-09-21T20:54:06;10.65;;;3.97;;
17496;SDS011;62150;43.582;1.456;2022-09-21T20:56:34;10.50;;;3.70;;
17496;SDS011;62150;43.582;1.456;2022-09-21T20:59:01;10.18;;;3.65;;
17496;SDS011;62150;43.582;1.456;2022-09-21T21:01:29;9.98;;;3.50;;
17496;SDS011;62150;43.582;1.456;2022-09-21T21:03:59;10.65;;;3.67;;
17496;SDS011;62150;43.582;1.456;2022-09-21T21:06:27;8.15;;;3.53;;
17496;SDS011;62150;43.582;1.456;2022-09-21T21:08:56;8.48;;;3.67;;
17496;SDS011;62150;43.582;1.456;2022-09-21T21:11:24;9.20;;;3.75;;
17496;SDS011;62150;43.582;1.456;2022-09-21T21:13:52;9.57;;;3.95;;
17496;SDS011;62150;43.582;1.456;2022-09-21T21:16:21;8.73;;;3.35;;
17496;SDS011;62150;43.582;1.456;2022-09-21T21:18:48;8.98;;;3.40;;
17496;SDS011;62150;43.582;1.456;2022-09-21T21:21:17;8.60;;;3.33;;
17496;SDS011;62150;43.582;1.456;2022-09-21T21:23:47;7.13;;;3.00;;
17496;SDS011;62150;43.582;1.456;2022-09-21T21:26:32;8.20;;;3.28;;
17496;SDS011;62150;43.582;1.456;2022-09-21T21:29:00;8.35;;;3.00;;
17496;SDS011;62150;43.582;1.456;2022-09-21T21:31:27;8.10;;;2.95;;
17496;SDS011;62150;43.582;1.456;2022-09-21T21:33:56;10.25;;;3.13;;
17496;SDS011;62150;43.582;1.456;2022-09-21T21:36:25;8.32;;;3.05;;
17496;SDS011;62150;43.582;1.456;2022-09-21T21:38:52;7.25;;;3.05;;
17496;SDS011;62150;43.582;1.456;2022-09-21T21:41:20;8.85;;;3.00;;
